createdAt,value
2022-09-10T00:02:23.824Z,8.23
2022-09-10T00:04:51.662Z,8.23
2022-09-10T00:07:19.433Z,8.52
2022-09-10T00:09:47.032Z,8.07
2022-09-10T00:12:14.998Z,8.88
2022-09-10T00:14:42.688Z,8.73
2022-09-10T00:17:11.651Z,9.00
2022-09-10T00:19:39.244Z,8.27
2022-09-10T00:22:06.909Z,8.82
2022-09-10T00:24:34.775Z,8.27
2022-09-10T00:27:02.805Z,8.18
2022-09-10T00:29:31.684Z,8.88
2022-09-10T00:31:59.281Z,8.32
2022-09-10T00:34:28.301Z,8.48
2022-09-10T00:36:55.948Z,8.80
2022-09-10T00:39:23.522Z,8.23
2022-09-10T00:41:52.466Z,8.50
2022-09-10T00:44:56.064Z,8.40
2022-09-10T00:47:26.523Z,8.27
2022-09-10T00:49:58.655Z,8.60
2022-09-10T00:52:27.769Z,8.02
2022-09-10T00:54:55.487Z,9.18
2022-09-10T00:57:24.522Z,8.38
2022-09-10T00:59:54.838Z,8.73
2022-09-10T01:02:22.744Z,8.43
2022-09-10T01:04:50.378Z,8.70
2022-09-10T01:07:21.403Z,8.35
2022-09-10T01:09:49.263Z,8.27
2022-09-10T01:12:25.365Z,8.43
2022-09-10T01:15:05.530Z,8.30
2022-09-10T01:17:40.183Z,8.57
2022-09-10T01:20:43.678Z,8.95
2022-09-10T01:23:31.598Z,8.60
2022-09-10T01:26:07.315Z,8.73
2022-09-10T01:28:39.609Z,8.57
2022-09-10T01:31:12.073Z,8.57
2022-09-10T01:33:44.073Z,8.40
2022-09-10T01:36:16.784Z,8.38
2022-09-10T01:38:44.622Z,8.25
2022-09-10T01:41:14.262Z,8.85
2022-09-10T01:43:43.368Z,8.75
2022-09-10T01:46:21.929Z,8.60
2022-09-10T01:49:05.463Z,9.55
2022-09-10T01:51:43.845Z,8.95
2022-09-10T01:54:24.812Z,8.77
2022-09-10T01:56:57.214Z,9.00
2022-09-10T01:59:30.900Z,8.60
2022-09-10T02:02:03.911Z,8.75
2022-09-10T02:04:31.883Z,8.18
2022-09-10T02:06:59.895Z,8.10
2022-09-10T02:09:28.002Z,8.48
2022-09-10T02:11:56.121Z,8.30
2022-09-10T02:14:24.390Z,8.30
2022-09-10T02:16:55.474Z,8.77
2022-09-10T02:19:23.141Z,8.63
2022-09-10T02:21:51.073Z,8.30
2022-09-10T02:24:18.786Z,8.63
2022-09-10T02:26:47.225Z,8.10
2022-09-10T02:29:16.604Z,8.50
2022-09-10T02:31:44.857Z,8.68
2022-09-10T02:34:15.793Z,8.05
2022-09-10T02:36:43.731Z,8.52
2022-09-10T02:39:11.366Z,7.95
2022-09-10T02:41:39.611Z,8.30
2022-09-10T02:44:07.499Z,8.10
2022-09-10T02:46:35.387Z,8.70
2022-09-10T02:49:03.411Z,8.75
2022-09-10T02:51:32.532Z,8.20
2022-09-10T02:54:00.238Z,8.30
2022-09-10T02:56:27.922Z,7.90
2022-09-10T02:58:55.768Z,8.73
2022-09-10T03:01:24.014Z,8.23
2022-09-10T03:03:52.200Z,7.95
2022-09-10T03:06:21.450Z,8.27
2022-09-10T03:08:51.169Z,8.73
2022-09-10T03:11:19.643Z,8.48
2022-09-10T03:13:47.951Z,8.20
2022-09-10T03:16:15.855Z,8.65
2022-09-10T03:18:44.064Z,8.70
2022-09-10T03:21:14.802Z,8.75
2022-09-10T03:23:44.657Z,8.13
2022-09-10T03:26:15.186Z,8.02
2022-09-10T03:28:43.920Z,8.35
2022-09-10T03:31:12.244Z,8.75
2022-09-10T03:33:40.889Z,8.43
2022-09-10T03:36:08.687Z,8.60
2022-09-10T03:38:36.410Z,9.05
2022-09-10T03:41:04.756Z,9.10
2022-09-10T03:43:33.801Z,8.02
2022-09-10T03:46:02.565Z,8.43
2022-09-10T03:48:30.657Z,8.80
2022-09-10T03:50:58.427Z,7.90
2022-09-10T03:53:26.362Z,8.50
2022-09-10T03:55:55.721Z,7.97
2022-09-10T03:58:23.620Z,8.63
2022-09-10T04:00:52.768Z,8.63
2022-09-10T04:03:21.109Z,9.30
2022-09-10T04:05:48.749Z,7.85
2022-09-10T04:08:16.782Z,9.57
2022-09-10T04:10:44.794Z,8.65
2022-09-10T04:13:12.719Z,8.43
2022-09-10T04:15:40.774Z,8.48
2022-09-10T04:18:11.574Z,8.00
2022-09-10T04:20:39.421Z,8.45
2022-09-10T04:23:07.283Z,8.25
2022-09-10T04:25:34.925Z,8.18
2022-09-10T04:28:02.859Z,8.77
2022-09-10T04:30:30.525Z,8.73
2022-09-10T04:32:58.156Z,8.82
2022-09-10T04:35:27.447Z,8.65
2022-09-10T04:37:55.261Z,8.60
2022-09-10T04:40:22.965Z,8.57
2022-09-10T04:42:50.593Z,8.20
2022-09-10T04:45:19.144Z,8.98
2022-09-10T04:47:47.519Z,9.00
2022-09-10T04:50:15.500Z,7.95
2022-09-10T04:52:44.490Z,8.48
2022-09-10T04:55:12.839Z,8.00
2022-09-10T04:57:40.600Z,8.52
2022-09-10T05:00:12.361Z,8.20
2022-09-10T05:02:39.983Z,8.52
2022-09-10T05:05:08.606Z,8.00
2022-09-10T05:07:36.267Z,7.88
2022-09-10T05:10:07.044Z,7.95
2022-09-10T05:12:34.681Z,8.23
2022-09-10T05:15:03.246Z,8.70
2022-09-10T05:17:30.839Z,8.52
2022-09-10T05:19:58.529Z,8.40
2022-09-10T05:22:30.499Z,8.38
2022-09-10T05:25:02.724Z,9.18
2022-09-10T05:27:31.704Z,8.13
2022-09-10T05:29:59.328Z,8.20
2022-09-10T05:32:27.026Z,8.25
2022-09-10T05:34:54.683Z,8.05
2022-09-10T05:37:22.333Z,8.27
2022-09-10T05:39:49.994Z,7.93
2022-09-10T05:42:18.692Z,8.80
2022-09-10T05:44:47.669Z,8.50
2022-09-10T05:47:15.382Z,7.90
2022-09-10T05:49:43.029Z,8.60
2022-09-10T05:52:10.709Z,8.30
2022-09-10T05:54:38.346Z,8.43
2022-09-10T05:57:06.544Z,8.30
2022-09-10T05:59:36.393Z,8.32
2022-09-10T06:02:05.514Z,8.10
2022-09-10T06:04:33.217Z,8.75
2022-09-10T06:07:01.865Z,7.95
2022-09-10T06:09:29.485Z,8.48
2022-09-10T06:11:57.131Z,8.63
2022-09-10T06:14:24.920Z,8.25
2022-09-10T06:16:54.650Z,8.60
2022-09-10T06:19:23.646Z,8.55
2022-09-10T06:21:52.345Z,8.40
2022-09-10T06:24:20.546Z,8.63
2022-09-10T06:26:49.461Z,8.77
2022-09-10T06:29:18.784Z,8.85
2022-09-10T06:31:47.098Z,8.00
2022-09-10T06:34:19.101Z,8.43
2022-09-10T06:36:50.640Z,8.48
2022-09-10T06:39:18.471Z,9.40
2022-09-10T06:41:49.582Z,8.45
2022-09-10T06:44:18.412Z,8.75
2022-09-10T06:49:33.607Z,7.75
2022-09-10T06:52:03.008Z,8.25
2022-09-10T06:54:30.624Z,7.70
2022-09-10T06:56:58.334Z,8.10
2022-09-10T06:59:26.047Z,7.78
2022-09-10T07:01:55.217Z,8.35
2022-09-10T07:04:22.869Z,8.40
2022-09-10T07:06:51.486Z,8.32
2022-09-10T07:09:20.967Z,8.02
2022-09-10T07:11:48.617Z,8.27
2022-09-10T07:14:16.222Z,8.52
2022-09-10T07:16:44.637Z,8.68
2022-09-10T07:19:15.015Z,8.40
2022-09-10T07:21:42.713Z,8.80
2022-09-10T07:24:12.129Z,8.10
2022-09-10T07:26:41.360Z,8.27
2022-09-10T07:29:08.973Z,8.10
2022-09-10T07:31:38.209Z,8.80
2022-09-10T07:34:06.056Z,8.30
2022-09-10T07:36:33.682Z,8.80
2022-09-10T07:39:01.934Z,8.52
2022-09-10T07:41:31.990Z,8.27
2022-09-10T07:44:01.015Z,8.55
2022-09-10T07:46:28.665Z,8.63
2022-09-10T07:48:57.884Z,8.13
2022-09-10T07:51:27.038Z,8.40
2022-09-10T07:53:55.331Z,8.65
2022-09-10T07:56:24.130Z,8.70
2022-09-10T07:58:52.704Z,8.82
2022-09-10T08:01:21.786Z,9.35
2022-09-10T08:03:49.465Z,8.77
2022-09-10T08:06:18.396Z,9.00
2022-09-10T08:08:46.007Z,9.77
2022-09-10T08:11:16.661Z,9.15
2022-09-10T08:13:46.157Z,8.80
2022-09-10T08:16:16.281Z,9.52
2022-09-10T08:18:45.455Z,8.75
2022-09-10T08:21:13.663Z,8.90
2022-09-10T08:23:41.643Z,8.65
2022-09-10T08:26:09.711Z,9.02
2022-09-10T08:28:37.667Z,8.90
2022-09-10T08:31:07.675Z,8.80
2022-09-10T08:33:36.165Z,9.43
2022-09-10T08:36:06.093Z,8.68
2022-09-10T08:38:35.661Z,9.20
2022-09-10T08:41:09.581Z,9.00
2022-09-10T08:43:42.809Z,9.00
2022-09-10T08:46:16.366Z,9.02
2022-09-10T08:48:45.493Z,9.60
2022-09-10T08:51:18.738Z,9.02
2022-09-10T08:53:51.186Z,9.52
2022-09-10T08:56:21.012Z,9.50
2022-09-10T08:58:52.122Z,9.65
2022-09-10T09:01:30.482Z,9.10
2022-09-10T09:04:01.607Z,8.70
2022-09-10T09:06:37.561Z,9.10
2022-09-10T09:09:05.750Z,8.80
2022-09-10T09:11:41.960Z,9.02
2022-09-10T09:14:18.638Z,9.23
2022-09-10T09:17:28.053Z,9.13
2022-09-10T09:20:02.804Z,9.10
2022-09-10T09:22:39.957Z,9.60
2022-09-10T09:25:12.812Z,9.23
2022-09-10T09:30:49.355Z,9.75
2022-09-10T09:33:20.999Z,8.90
2022-09-10T09:35:53.087Z,9.30
2022-09-10T09:38:24.666Z,9.10
2022-09-10T09:40:56.331Z,9.20
2022-09-10T09:43:33.872Z,9.82
2022-09-10T09:46:01.967Z,9.13
2022-09-10T09:48:36.262Z,10.00
2022-09-10T09:51:05.020Z,8.80
2022-09-10T09:53:34.025Z,9.10
2022-09-10T09:56:03.334Z,9.13
2022-09-10T09:58:33.498Z,9.50
2022-09-10T10:01:16.938Z,8.95
2022-09-10T10:03:58.483Z,9.75
2022-09-10T10:06:27.859Z,8.97
2022-09-10T10:09:02.254Z,8.85
2022-09-10T10:11:45.391Z,8.95
2022-09-10T10:14:21.911Z,9.00
2022-09-10T10:16:52.055Z,9.48
2022-09-10T10:19:29.734Z,9.10
2022-09-10T10:21:58.272Z,8.90
2022-09-10T10:24:33.096Z,8.95
2022-09-10T10:27:01.214Z,9.43
2022-09-10T10:29:29.325Z,8.90
2022-09-10T10:31:57.514Z,9.15
2022-09-10T10:34:39.361Z,9.10
2022-09-10T10:37:14.679Z,9.35
2022-09-10T10:40:01.069Z,10.05
2022-09-10T10:42:30.987Z,8.80
2022-09-10T10:45:13.424Z,9.23
2022-09-10T10:50:22.677Z,9.63
2022-09-10T10:53:04.584Z,9.68
2022-09-10T10:55:36.986Z,9.68
2022-09-10T10:58:26.166Z,9.55
2022-09-10T11:00:58.740Z,9.77
2022-09-10T11:03:30.602Z,9.85
2022-09-10T11:06:01.373Z,9.60
2022-09-10T11:08:33.481Z,8.88
2022-09-10T11:11:09.201Z,9.75
2022-09-10T11:13:40.832Z,9.35
2022-09-10T11:16:16.182Z,9.00
2022-09-10T11:18:46.822Z,9.15
2022-09-10T11:21:21.513Z,9.48
2022-09-10T11:23:52.666Z,9.63
2022-09-10T11:26:25.130Z,10.13
2022-09-10T11:29:00.521Z,9.88
2022-09-10T11:31:32.143Z,9.93
2022-09-10T11:34:04.905Z,10.15
2022-09-10T11:36:35.052Z,9.70
2022-09-10T11:39:09.242Z,9.10
2022-09-10T11:41:42.235Z,9.05
2022-09-10T11:44:20.023Z,10.00
2022-09-10T11:46:54.598Z,10.23
2022-09-10T11:49:25.339Z,10.07
2022-09-10T11:51:53.150Z,9.93
2022-09-10T11:54:28.295Z,10.05
2022-09-10T11:57:01.212Z,9.70
2022-09-10T11:59:52.360Z,10.25
2022-09-10T12:02:54.489Z,9.25
2022-09-10T12:05:28.082Z,10.02
2022-09-10T12:08:01.954Z,9.60
2022-09-10T12:10:34.685Z,10.43
2022-09-10T12:13:09.360Z,10.32
2022-09-10T12:15:38.337Z,9.95
2022-09-10T12:18:08.609Z,9.48
2022-09-10T12:20:38.286Z,10.25
2022-09-10T12:23:06.260Z,9.75
2022-09-10T12:25:35.014Z,10.32
2022-09-10T12:28:08.210Z,10.05
2022-09-10T12:31:02.809Z,9.90
2022-09-10T12:34:12.411Z,9.80
2022-09-10T12:37:19.266Z,10.23
2022-09-10T12:39:47.021Z,9.45
2022-09-10T12:42:29.606Z,10.18
2022-09-10T12:44:59.808Z,10.60
2022-09-10T12:47:50.488Z,10.27
2022-09-10T12:50:22.101Z,10.00
2022-09-10T12:53:14.376Z,10.32
2022-09-10T12:55:44.903Z,10.55
2022-09-10T12:58:23.382Z,10.23
2022-09-10T13:01:08.545Z,10.20
2022-09-10T13:03:37.588Z,9.82
2022-09-10T13:06:07.075Z,10.75
2022-09-10T13:08:36.381Z,9.77
2022-09-10T13:11:14.714Z,10.27
2022-09-10T13:13:45.505Z,10.43
2022-09-10T13:16:17.272Z,9.90
2022-09-10T13:18:46.664Z,9.90
2022-09-10T13:21:52.171Z,10.10
2022-09-10T13:24:37.597Z,10.35
2022-09-10T13:27:13.722Z,10.00
2022-09-10T13:29:43.315Z,9.82
2022-09-10T13:32:19.894Z,9.60
2022-09-10T13:35:20.269Z,10.02
2022-09-10T13:38:08.787Z,9.70
2022-09-10T13:40:56.775Z,9.77
2022-09-10T13:43:41.315Z,10.68
2022-09-10T13:46:14.769Z,9.77
2022-09-10T13:48:47.848Z,10.43
2022-09-10T13:51:24.142Z,9.95
2022-09-10T13:53:52.801Z,10.38
2022-09-10T13:56:23.002Z,9.68
2022-09-10T13:58:52.020Z,9.85
2022-09-10T14:01:19.839Z,10.02
2022-09-10T14:03:48.934Z,9.55
2022-09-10T14:06:18.243Z,9.30
2022-09-10T14:08:49.450Z,9.57
2022-09-10T14:11:20.153Z,9.32
2022-09-10T14:13:51.857Z,9.73
2022-09-10T14:16:26.130Z,10.07
2022-09-10T14:19:11.440Z,9.77
2022-09-10T14:21:39.240Z,9.80
2022-09-10T14:24:07.252Z,10.05
2022-09-10T14:26:34.970Z,10.27
2022-09-10T14:29:04.214Z,9.55
2022-09-10T14:31:35.956Z,9.45
2022-09-10T14:34:30.728Z,9.85
2022-09-10T14:36:59.273Z,9.20
2022-09-10T14:39:27.058Z,9.20
2022-09-10T14:42:10.583Z,9.93
2022-09-10T14:44:41.909Z,9.60
2022-09-10T14:47:24.702Z,9.93
2022-09-10T14:49:53.666Z,9.55
2022-09-10T14:52:22.425Z,10.60
2022-09-10T14:54:50.122Z,10.32
2022-09-10T14:57:18.278Z,10.48
2022-09-10T14:59:46.662Z,9.82
2022-09-10T15:02:17.212Z,9.68
2022-09-10T15:04:45.128Z,10.30
2022-09-10T15:07:14.498Z,9.98
2022-09-10T15:09:42.307Z,9.82
2022-09-10T15:12:13.430Z,10.02
2022-09-10T15:14:41.072Z,9.63
2022-09-10T15:17:10.213Z,9.55
2022-09-10T15:19:37.901Z,9.90
2022-09-10T15:22:05.748Z,9.77
2022-09-10T15:24:52.493Z,9.82
2022-09-10T15:27:20.906Z,10.23
2022-09-10T15:29:49.269Z,9.77
2022-09-10T15:32:18.245Z,10.10
2022-09-10T15:34:45.990Z,9.63
2022-09-10T15:37:13.843Z,10.10
2022-09-10T15:39:43.746Z,10.00
2022-09-10T15:42:11.805Z,9.90
2022-09-10T15:44:41.258Z,9.70
2022-09-10T15:47:09.216Z,10.07
2022-09-10T15:49:37.137Z,9.40
2022-09-10T15:52:04.989Z,9.80
2022-09-10T15:54:33.970Z,9.15
2022-09-10T15:57:03.194Z,9.50
2022-09-10T15:59:30.901Z,9.02
2022-09-10T16:01:58.664Z,8.85
2022-09-10T16:04:27.774Z,8.98
2022-09-10T16:06:55.574Z,9.45
2022-09-10T16:09:23.343Z,10.50
2022-09-10T16:11:51.310Z,9.45
2022-09-10T16:14:20.725Z,9.90
2022-09-10T16:16:51.047Z,9.68
2022-09-10T16:19:18.822Z,9.48
2022-09-10T16:21:46.893Z,9.25
2022-09-10T16:24:14.610Z,9.23
2022-09-10T16:26:43.850Z,9.18
2022-09-10T16:29:14.505Z,9.25
2022-09-10T16:31:45.570Z,9.68
2022-09-10T16:34:16.278Z,9.20
2022-09-10T16:36:44.611Z,9.35
2022-09-10T16:39:13.951Z,9.20
2022-09-10T16:41:42.991Z,9.60
2022-09-10T16:44:12.157Z,9.07
2022-09-10T16:46:40.457Z,10.40
2022-09-10T16:49:12.755Z,9.32
2022-09-10T16:51:41.463Z,9.90
2022-09-10T16:54:09.837Z,9.20
2022-09-10T16:56:39.998Z,9.27
2022-09-10T16:59:08.890Z,10.77
2022-09-10T17:01:37.126Z,9.35
2022-09-10T17:04:07.213Z,9.23
2022-09-10T17:06:36.938Z,9.90
2022-09-10T17:09:04.853Z,9.25
2022-09-10T17:11:33.774Z,9.55
2022-09-10T17:14:02.600Z,9.98
2022-09-10T17:16:32.771Z,9.43
2022-09-10T17:19:02.269Z,9.25
2022-09-10T17:21:32.744Z,8.82
2022-09-10T17:24:02.982Z,9.23
2022-09-10T17:26:31.376Z,9.18
2022-09-10T17:29:00.336Z,9.60
2022-09-10T17:31:29.509Z,9.35
2022-09-10T17:33:57.252Z,9.20
2022-09-10T17:36:26.225Z,9.52
2022-09-10T17:38:54.669Z,9.95
2022-09-10T17:41:24.782Z,8.95
2022-09-10T17:43:52.722Z,9.20
2022-09-10T17:46:22.761Z,8.93
2022-09-10T17:48:51.256Z,10.50
2022-09-10T17:51:20.458Z,9.60
2022-09-10T17:53:48.434Z,9.38
2022-09-10T17:56:18.967Z,9.05
2022-09-10T17:58:48.253Z,9.57
2022-09-10T18:01:44.576Z,9.32
2022-09-10T18:04:14.447Z,8.98
2022-09-10T18:06:43.850Z,8.93
2022-09-10T18:09:11.624Z,9.07
2022-09-10T18:11:40.997Z,9.40
2022-09-10T18:14:14.934Z,9.00
2022-09-10T18:16:42.566Z,8.93
2022-09-10T18:19:14.600Z,9.05
2022-09-10T18:21:43.685Z,9.15
2022-09-10T18:24:12.822Z,8.98
2022-09-10T18:26:43.549Z,9.15
2022-09-10T18:29:14.880Z,9.55
2022-09-10T18:31:44.587Z,6.43
2022-09-10T18:34:13.889Z,8.90
2022-09-10T18:36:41.566Z,8.95
2022-09-10T18:39:11.313Z,9.02
2022-09-10T18:41:40.114Z,9.35
2022-09-10T18:44:11.491Z,9.50
2022-09-10T18:46:40.788Z,9.90
2022-09-10T18:49:08.376Z,9.50
2022-09-10T18:51:36.133Z,9.13
2022-09-10T18:54:04.243Z,9.05
2022-09-10T18:56:32.804Z,9.15
2022-09-10T18:59:02.992Z,9.43
2022-09-10T19:01:31.115Z,9.77
2022-09-10T19:04:00.151Z,10.70
2022-09-10T19:06:29.817Z,9.98
2022-09-10T19:08:59.187Z,9.80
2022-09-10T19:11:28.723Z,9.48
2022-09-10T19:13:57.873Z,9.60
2022-09-10T19:16:27.921Z,8.93
2022-09-10T19:18:57.042Z,9.80
2022-09-10T19:21:27.036Z,9.23
2022-09-10T19:23:59.558Z,9.40
2022-09-10T19:26:29.122Z,10.00
2022-09-10T19:28:57.303Z,10.32
2022-09-10T19:31:26.880Z,9.60
2022-09-10T19:33:55.688Z,9.90
2022-09-10T19:36:23.340Z,9.13
2022-09-10T19:38:52.474Z,9.20
2022-09-10T19:41:20.303Z,9.60
2022-09-10T19:43:49.472Z,9.27
2022-09-10T19:46:18.302Z,9.30
2022-09-10T19:48:47.074Z,9.25
2022-09-10T19:51:16.243Z,9.30
2022-09-10T19:53:44.261Z,9.90
2022-09-10T19:56:20.139Z,9.65
2022-09-10T19:58:57.288Z,10.73
2022-09-10T20:01:26.872Z,10.65
2022-09-10T20:03:57.147Z,9.13
2022-09-10T20:06:25.370Z,9.45
2022-09-10T20:08:53.511Z,9.57
2022-09-10T20:11:23.935Z,9.30
2022-09-10T20:13:55.579Z,9.45
2022-09-10T20:16:25.073Z,8.90
2022-09-10T20:18:53.455Z,9.32
2022-09-10T20:22:00.376Z,9.05
2022-09-10T20:24:28.715Z,8.73
2022-09-10T20:26:57.750Z,9.10
2022-09-10T20:29:50.243Z,8.82
2022-09-10T20:32:17.898Z,9.18
2022-09-10T20:34:45.606Z,9.38
2022-09-10T20:37:13.280Z,9.32
2022-09-10T20:39:42.648Z,8.90
2022-09-10T20:42:12.074Z,9.27
2022-09-10T20:44:39.715Z,9.35
2022-09-10T20:47:08.092Z,9.15
2022-09-10T20:49:35.746Z,8.70
2022-09-10T20:52:04.497Z,9.40
2022-09-10T20:54:32.155Z,9.15
2022-09-10T20:56:59.837Z,9.10
2022-09-10T20:59:29.134Z,8.90
2022-09-10T21:01:56.982Z,9.00
2022-09-10T21:04:24.670Z,9.13
2022-09-10T21:06:52.311Z,9.15
2022-09-10T21:09:19.924Z,8.98
2022-09-10T21:11:47.649Z,9.00
2022-09-10T21:14:15.408Z,8.93
2022-09-10T21:16:47.183Z,8.68
2022-09-10T21:19:17.089Z,8.60
2022-09-10T21:21:46.193Z,8.82
2022-09-10T21:24:15.884Z,8.80
2022-09-10T21:26:44.243Z,8.85
2022-09-10T21:29:13.224Z,8.50
2022-09-10T21:31:45.334Z,9.15
2022-09-10T21:34:13.760Z,9.00
2022-09-10T21:36:43.570Z,9.00
2022-09-10T21:39:14.240Z,8.85
2022-09-10T21:41:44.021Z,9.35
2022-09-10T21:44:14.088Z,8.82
2022-09-10T21:46:42.558Z,9.45
2022-09-10T21:49:11.662Z,8.85
2022-09-10T21:51:39.492Z,8.70
2022-09-10T21:54:07.334Z,8.50
2022-09-10T21:56:34.948Z,9.48
2022-09-10T21:59:02.569Z,9.10
2022-09-10T22:01:32.156Z,9.15
2022-09-10T22:04:01.042Z,8.70
2022-09-10T22:06:31.178Z,8.82
2022-09-10T22:09:00.280Z,9.23
2022-09-10T22:11:30.532Z,9.02
2022-09-10T22:14:00.864Z,9.18
2022-09-10T22:16:29.001Z,8.82
2022-09-10T22:18:56.847Z,8.73
2022-09-10T22:21:25.093Z,9.35
2022-09-10T22:23:54.173Z,9.30
2022-09-10T22:26:23.442Z,8.85
2022-09-10T22:28:52.680Z,8.75
2022-09-10T22:31:22.286Z,8.70
2022-09-10T22:33:53.895Z,8.88
2022-09-10T22:36:24.156Z,8.57
2022-09-10T22:38:54.528Z,8.07
2022-09-10T22:41:23.186Z,8.48
2022-09-10T22:43:50.902Z,8.57
2022-09-10T22:46:19.185Z,8.80
2022-09-10T22:48:47.250Z,9.57
2022-09-10T22:51:17.817Z,8.52
2022-09-10T22:53:46.353Z,8.77
2022-09-10T22:56:17.663Z,8.63
2022-09-10T22:58:45.565Z,8.27
2022-09-10T23:01:14.702Z,8.65
2022-09-10T23:03:43.031Z,8.60
2022-09-10T23:06:12.775Z,8.68
2022-09-10T23:08:41.465Z,8.73
2022-09-10T23:11:11.027Z,8.88
2022-09-10T23:13:40.159Z,8.65
2022-09-10T23:16:15.743Z,8.52
2022-09-10T23:18:43.915Z,8.80
2022-09-10T23:21:11.925Z,9.35
2022-09-10T23:23:39.561Z,8.93
2022-09-10T23:26:08.330Z,8.73
2022-09-10T23:28:36.773Z,8.75
2022-09-10T23:31:12.237Z,9.43
2022-09-10T23:33:40.897Z,9.82
2022-09-10T23:36:09.109Z,9.05
2022-09-10T23:38:37.228Z,8.88
2022-09-10T23:41:04.912Z,8.57
2022-09-10T23:43:33.190Z,8.68
2022-09-10T23:46:00.861Z,9.13
2022-09-10T23:48:29.981Z,9.07
2022-09-10T23:50:57.935Z,8.65
2022-09-10T23:53:26.077Z,8.90
2022-09-10T23:55:54.164Z,8.73
2022-09-10T23:58:22.502Z,9.00
